sensor_id;sensor_type;location;lat;lon;timestamp;P1;durP1;ratioP1;P2;durP2;ratioP2
50056;SDS011;36875;49.468;11.200;2023-07-22T00:01:26;3.25;;;2.05;;
50056;SDS011;36875;49.468;11.200;2023-07-22T00:03:52;4.28;;;2.28;;
50056;SDS011;36875;49.468;11.200;2023-07-22T00:06:18;2.92;;;1.92;;
50056;SDS011;36875;49.468;11.200;2023-07-22T00:08:43;2.38;;;1.98;;
50056;SDS011;36875;49.468;11.200;2023-07-22T00:11:09;3.03;;;2.13;;
50056;SDS011;36875;49.468;11.200;2023-07-22T00:13:34;2.97;;;2.13;;
50056;SDS011;36875;49.468;11.200;2023-07-22T00:16:00;3.33;;;2.08;;
50056;SDS011;36875;49.468;11.200;2023-07-22T00:18:27;2.88;;;2.03;;
50056;SDS011;36875;49.468;11.200;2023-07-22T00:20:54;3.63;;;2.15;;
50056;SDS011;36875;49.468;11.200;2023-07-22T00:23:20;3.97;;;2.08;;
50056;SDS011;36875;49.468;11.200;2023-07-22T00:25:46;2.75;;;2.00;;
50056;SDS011;36875;49.468;11.200;2023-07-22T00:28:12;2.78;;;1.95;;
50056;SDS011;36875;49.468;11.200;2023-07-22T00:30:37;3.20;;;2.03;;
50056;SDS011;36875;49.468;11.200;2023-07-22T00:33:03;5.00;;;2.00;;
50056;SDS011;36875;49.468;11.200;2023-07-22T00:35:28;2.78;;;1.83;;
50056;SDS011;36875;49.468;11.200;2023-07-22T00:37:55;5.10;;;2.20;;
50056;SDS011;36875;49.468;11.200;2023-07-22T00:40:23;3.10;;;2.08;;
50056;SDS011;36875;49.468;11.200;2023-07-22T00:42:49;4.13;;;2.17;;
50056;SDS011;36875;49.468;11.200;2023-07-22T00:45:14;3.65;;;2.05;;
50056;SDS011;36875;49.468;11.200;2023-07-22T00:47:40;5.78;;;2.10;;
50056;SDS011;36875;49.468;11.200;2023-07-22T00:50:06;3.10;;;2.03;;
50056;SDS011;36875;49.468;11.200;2023-07-22T00:52:32;3.30;;;2.17;;
50056;SDS011;36875;49.468;11.200;2023-07-22T00:55:00;3.10;;;2.00;;
50056;SDS011;36875;49.468;11.200;2023-07-22T00:57:26;3.17;;;1.98;;
50056;SDS011;36875;49.468;11.200;2023-07-22T00:59:51;3.05;;;2.08;;
50056;SDS011;36875;49.468;11.200;2023-07-22T01:02:17;3.97;;;1.90;;
50056;SDS011;36875;49.468;11.200;2023-07-22T01:04:43;4.72;;;2.28;;
50056;SDS011;36875;49.468;11.200;2023-07-22T01:07:08;3.20;;;1.92;;
50056;SDS011;36875;49.468;11.200;2023-07-22T01:09:35;3.20;;;2.17;;
50056;SDS011;36875;49.468;11.200;2023-07-22T01:12:03;3.90;;;2.10;;
50056;SDS011;36875;49.468;11.200;2023-07-22T01:14:31;3.47;;;2.28;;
50056;SDS011;36875;49.468;11.200;2023-07-22T01:16:57;3.80;;;2.17;;
50056;SDS011;36875;49.468;11.200;2023-07-22T01:19:23;3.83;;;1.88;;
50056;SDS011;36875;49.468;11.200;2023-07-22T01:21:50;2.42;;;1.60;;
50056;SDS011;36875;49.468;11.200;2023-07-22T01:24:17;4.13;;;1.90;;
50056;SDS011;36875;49.468;11.200;2023-07-22T01:26:43;3.40;;;1.90;;
50056;SDS011;36875;49.468;11.200;2023-07-22T01:29:09;3.75;;;2.20;;
50056;SDS011;36875;49.468;11.200;2023-07-22T01:31:34;2.88;;;1.90;;
50056;SDS011;36875;49.468;11.200;2023-07-22T01:34:03;4.72;;;2.08;;
50056;SDS011;36875;49.468;11.200;2023-07-22T01:36:29;2.67;;;1.90;;
50056;SDS011;36875;49.468;11.200;2023-07-22T01:38:54;3.58;;;2.10;;
50056;SDS011;36875;49.468;11.200;2023-07-22T01:41:21;3.65;;;2.03;;
50056;SDS011;36875;49.468;11.200;2023-07-22T01:43:47;4.95;;;2.10;;
50056;SDS011;36875;49.468;11.200;2023-07-22T01:46:14;3.08;;;1.80;;
50056;SDS011;36875;49.468;11.200;2023-07-22T01:48:39;4.25;;;2.15;;
50056;SDS011;36875;49.468;11.200;2023-07-22T01:51:04;3.70;;;2.28;;
50056;SDS011;36875;49.468;11.200;2023-07-22T01:53:30;3.05;;;1.90;;
50056;SDS011;36875;49.468;11.200;2023-07-22T01:55:57;6.00;;;2.03;;
50056;SDS011;36875;49.468;11.200;2023-07-22T01:58:23;4.07;;;2.03;;
50056;SDS011;36875;49.468;11.200;2023-07-22T02:00:49;5.38;;;2.22;;
50056;SDS011;36875;49.468;11.200;2023-07-22T02:03:15;2.92;;;2.00;;
50056;SDS011;36875;49.468;11.200;2023-07-22T02:05:40;2.67;;;1.90;;
50056;SDS011;36875;49.468;11.200;2023-07-22T02:08:06;3.33;;;2.17;;
50056;SDS011;36875;49.468;11.200;2023-07-22T02:10:31;3.35;;;1.90;;
50056;SDS011;36875;49.468;11.200;2023-07-22T02:12:57;4.03;;;2.10;;
50056;SDS011;36875;49.468;11.200;2023-07-22T02:15:24;3.22;;;1.95;;
50056;SDS011;36875;49.468;11.200;2023-07-22T02:17:49;2.88;;;1.90;;
50056;SDS011;36875;49.468;11.200;2023-07-22T02:20:15;3.08;;;2.10;;
50056;SDS011;36875;49.468;11.200;2023-07-22T02:22:40;4.85;;;2.00;;
50056;SDS011;36875;49.468;11.200;2023-07-22T02:25:06;2.58;;;1.70;;
50056;SDS011;36875;49.468;11.200;2023-07-22T02:27:32;4.03;;;2.58;;
50056;SDS011;36875;49.468;11.200;2023-07-22T02:29:58;3.67;;;1.85;;
50056;SDS011;36875;49.468;11.200;2023-07-22T02:32:24;2.80;;;1.90;;
50056;SDS011;36875;49.468;11.200;2023-07-22T02:34:50;3.22;;;2.17;;
50056;SDS011;36875;49.468;11.200;2023-07-22T02:37:15;3.63;;;1.92;;
50056;SDS011;36875;49.468;11.200;2023-07-22T02:39:41;2.75;;;1.73;;
50056;SDS011;36875;49.468;11.200;2023-07-22T02:42:06;2.92;;;1.73;;
50056;SDS011;36875;49.468;11.200;2023-07-22T02:44:32;3.30;;;2.08;;
50056;SDS011;36875;49.468;11.200;2023-07-22T02:46:57;3.35;;;2.00;;
50056;SDS011;36875;49.468;11.200;2023-07-22T02:49:24;3.75;;;1.85;;
50056;SDS011;36875;49.468;11.200;2023-07-22T02:51:50;2.78;;;1.90;;
50056;SDS011;36875;49.468;11.200;2023-07-22T02:54:15;3.40;;;1.92;;
50056;SDS011;36875;49.468;11.200;2023-07-22T02:56:42;3.25;;;2.00;;
50056;SDS011;36875;49.468;11.200;2023-07-22T02:59:09;3.42;;;1.98;;
50056;SDS011;36875;49.468;11.200;2023-07-22T03:01:34;3.47;;;1.95;;
50056;SDS011;36875;49.468;11.200;2023-07-22T03:04:03;2.92;;;1.90;;
50056;SDS011;36875;49.468;11.200;2023-07-22T03:06:30;3.30;;;1.52;;
50056;SDS011;36875;49.468;11.200;2023-07-22T03:08:56;2.83;;;1.70;;
50056;SDS011;36875;49.468;11.200;2023-07-22T03:11:23;2.95;;;1.77;;
50056;SDS011;36875;49.468;11.200;2023-07-22T03:13:50;3.22;;;2.20;;
50056;SDS011;36875;49.468;11.200;2023-07-22T03:16:15;3.22;;;1.70;;
50056;SDS011;36875;49.468;11.200;2023-07-22T03:18:41;2.70;;;1.80;;
50056;SDS011;36875;49.468;11.200;2023-07-22T03:21:08;2.75;;;1.95;;
50056;SDS011;36875;49.468;11.200;2023-07-22T03:23:35;4.93;;;2.03;;
50056;SDS011;36875;49.468;11.200;2023-07-22T03:26:00;4.03;;;2.35;;
50056;SDS011;36875;49.468;11.200;2023-07-22T03:28:26;2.67;;;2.10;;
50056;SDS011;36875;49.468;11.200;2023-07-22T03:30:52;3.60;;;2.10;;
50056;SDS011;36875;49.468;11.200;2023-07-22T03:33:18;2.97;;;1.73;;
50056;SDS011;36875;49.468;11.200;2023-07-22T03:35:43;3.55;;;2.08;;
50056;SDS011;36875;49.468;11.200;2023-07-22T03:38:09;3.38;;;1.90;;
50056;SDS011;36875;49.468;11.200;2023-07-22T03:40:35;2.45;;;1.90;;
50056;SDS011;36875;49.468;11.200;2023-07-22T03:43:02;3.58;;;1.92;;
50056;SDS011;36875;49.468;11.200;2023-07-22T03:45:28;2.47;;;1.70;;
50056;SDS011;36875;49.468;11.200;2023-07-22T03:47:55;4.35;;;2.03;;
50056;SDS011;36875;49.468;11.200;2023-07-22T03:50:21;2.67;;;1.80;;
50056;SDS011;36875;49.468;11.200;2023-07-22T03:52:47;2.65;;;1.75;;
50056;SDS011;36875;49.468;11.200;2023-07-22T03:55:12;3.08;;;1.75;;
50056;SDS011;36875;49.468;11.200;2023-07-22T03:57:40;2.63;;;1.83;;
50056;SDS011;36875;49.468;11.200;2023-07-22T04:00:06;3.03;;;2.00;;
50056;SDS011;36875;49.468;11.200;2023-07-22T04:02:35;3.22;;;2.00;;
50056;SDS011;36875;49.468;11.200;2023-07-22T04:05:01;2.50;;;1.80;;
50056;SDS011;36875;49.468;11.200;2023-07-22T04:07:26;3.15;;;1.70;;
50056;SDS011;36875;49.468;11.200;2023-07-22T04:09:52;3.38;;;1.80;;
50056;SDS011;36875;49.468;11.200;2023-07-22T04:12:17;2.55;;;1.70;;
50056;SDS011;36875;49.468;11.200;2023-07-22T04:14:44;3.70;;;2.20;;
50056;SDS011;36875;49.468;11.200;2023-07-22T04:17:10;3.72;;;1.92;;
50056;SDS011;36875;49.468;11.200;2023-07-22T04:19:35;3.90;;;2.00;;
50056;SDS011;36875;49.468;11.200;2023-07-22T04:22:01;2.88;;;1.60;;
50056;SDS011;36875;49.468;11.200;2023-07-22T04:24:29;4.50;;;1.70;;
50056;SDS011;36875;49.468;11.200;2023-07-22T04:26:55;3.20;;;1.85;;
50056;SDS011;36875;49.468;11.200;2023-07-22T04:29:21;2.33;;;1.70;;
50056;SDS011;36875;49.468;11.200;2023-07-22T04:31:48;3.45;;;1.75;;
50056;SDS011;36875;49.468;11.200;2023-07-22T04:34:13;3.00;;;1.70;;
50056;SDS011;36875;49.468;11.200;2023-07-22T04:36:39;2.45;;;1.67;;
50056;SDS011;36875;49.468;11.200;2023-07-22T04:39:04;2.38;;;1.60;;
50056;SDS011;36875;49.468;11.200;2023-07-22T04:41:30;2.92;;;1.75;;
50056;SDS011;36875;49.468;11.200;2023-07-22T04:43:56;2.45;;;1.70;;
50056;SDS011;36875;49.468;11.200;2023-07-22T04:46:23;3.25;;;2.08;;
50056;SDS011;36875;49.468;11.200;2023-07-22T04:48:50;2.75;;;1.80;;
50056;SDS011;36875;49.468;11.200;2023-07-22T04:51:16;2.28;;;1.70;;
50056;SDS011;36875;49.468;11.200;2023-07-22T04:53:41;3.20;;;1.80;;
50056;SDS011;36875;49.468;11.200;2023-07-22T04:56:07;2.30;;;1.75;;
50056;SDS011;36875;49.468;11.200;2023-07-22T04:58:32;3.10;;;2.13;;
50056;SDS011;36875;49.468;11.200;2023-07-22T05:00:58;2.50;;;1.77;;
50056;SDS011;36875;49.468;11.200;2023-07-22T05:03:23;3.13;;;1.95;;
50056;SDS011;36875;49.468;11.200;2023-07-22T05:05:52;2.45;;;1.80;;
50056;SDS011;36875;49.468;11.200;2023-07-22T05:08:18;3.45;;;1.80;;
50056;SDS011;36875;49.468;11.200;2023-07-22T05:10:44;3.20;;;1.80;;
50056;SDS011;36875;49.468;11.200;2023-07-22T05:13:09;4.05;;;2.05;;
50056;SDS011;36875;49.468;11.200;2023-07-22T05:15:35;3.05;;;1.80;;
50056;SDS011;36875;49.468;11.200;2023-07-22T05:18:00;2.75;;;1.70;;
50056;SDS011;36875;49.468;11.200;2023-07-22T05:20:26;2.35;;;1.60;;
50056;SDS011;36875;49.468;11.200;2023-07-22T05:22:53;3.17;;;1.95;;
50056;SDS011;36875;49.468;11.200;2023-07-22T05:25:18;3.67;;;2.00;;
50056;SDS011;36875;49.468;11.200;2023-07-22T05:27:44;4.15;;;1.98;;
50056;SDS011;36875;49.468;11.200;2023-07-22T05:30:09;3.83;;;2.00;;
50056;SDS011;36875;49.468;11.200;2023-07-22T05:32:35;3.03;;;2.00;;
50056;SDS011;36875;49.468;11.200;2023-07-22T05:35:01;2.33;;;1.60;;
50056;SDS011;36875;49.468;11.200;2023-07-22T05:37:29;2.97;;;1.80;;
50056;SDS011;36875;49.468;11.200;2023-07-22T05:39:57;3.08;;;1.45;;
50056;SDS011;36875;49.468;11.200;2023-07-22T05:42:22;2.95;;;1.60;;
50056;SDS011;36875;49.468;11.200;2023-07-22T05:44:48;3.10;;;1.80;;
50056;SDS011;36875;49.468;11.200;2023-07-22T05:47:14;3.13;;;1.80;;
50056;SDS011;36875;49.468;11.200;2023-07-22T05:49:39;4.53;;;2.22;;
50056;SDS011;36875;49.468;11.200;2023-07-22T05:52:05;3.10;;;1.75;;
50056;SDS011;36875;49.468;11.200;2023-07-22T05:54:31;3.03;;;1.70;;
50056;SDS011;36875;49.468;11.200;2023-07-22T05:56:58;2.75;;;1.98;;
50056;SDS011;36875;49.468;11.200;2023-07-22T05:59:23;3.22;;;1.90;;
50056;SDS011;36875;49.468;11.200;2023-07-22T06:01:49;2.00;;;1.63;;
50056;SDS011;36875;49.468;11.200;2023-07-22T06:04:15;3.50;;;1.80;;
50056;SDS011;36875;49.468;11.200;2023-07-22T06:06:41;3.20;;;1.67;;
50056;SDS011;36875;49.468;11.200;2023-07-22T06:09:08;3.63;;;2.10;;
50056;SDS011;36875;49.468;11.200;2023-07-22T06:11:33;2.60;;;1.73;;
50056;SDS011;36875;49.468;11.200;2023-07-22T06:14:00;3.28;;;1.92;;
50056;SDS011;36875;49.468;11.200;2023-07-22T06:16:25;2.70;;;1.80;;
50056;SDS011;36875;49.468;11.200;2023-07-22T06:18:51;4.40;;;1.70;;
50056;SDS011;36875;49.468;11.200;2023-07-22T06:21:16;2.15;;;1.67;;
50056;SDS011;36875;49.468;11.200;2023-07-22T06:23:42;3.42;;;2.20;;
50056;SDS011;36875;49.468;11.200;2023-07-22T06:26:07;2.92;;;1.75;;
50056;SDS011;36875;49.468;11.200;2023-07-22T06:28:33;4.10;;;2.08;;
50056;SDS011;36875;49.468;11.200;2023-07-22T06:31:00;2.72;;;1.60;;
50056;SDS011;36875;49.468;11.200;2023-07-22T06:33:25;2.63;;;1.70;;
50056;SDS011;36875;49.468;11.200;2023-07-22T06:35:51;2.35;;;1.63;;
50056;SDS011;36875;49.468;11.200;2023-07-22T06:38:16;2.13;;;1.42;;
50056;SDS011;36875;49.468;11.200;2023-07-22T06:40:42;3.08;;;1.63;;
50056;SDS011;36875;49.468;11.200;2023-07-22T06:43:07;3.03;;;1.73;;
50056;SDS011;36875;49.468;11.200;2023-07-22T06:45:33;3.47;;;1.98;;
50056;SDS011;36875;49.468;11.200;2023-07-22T06:48:00;3.38;;;1.80;;
50056;SDS011;36875;49.468;11.200;2023-07-22T06:50:25;3.22;;;1.70;;
50056;SDS011;36875;49.468;11.200;2023-07-22T06:52:51;2.15;;;1.70;;
50056;SDS011;36875;49.468;11.200;2023-07-22T06:55:16;2.70;;;1.70;;
50056;SDS011;36875;49.468;11.200;2023-07-22T06:57:41;2.40;;;1.85;;
50056;SDS011;36875;49.468;11.200;2023-07-22T07:00:07;2.60;;;1.85;;
50056;SDS011;36875;49.468;11.200;2023-07-22T07:02:35;2.83;;;1.90;;
50056;SDS011;36875;49.468;11.200;2023-07-22T07:05:02;3.45;;;2.03;;
50056;SDS011;36875;49.468;11.200;2023-07-22T07:07:28;3.13;;;1.90;;
50056;SDS011;36875;49.468;11.200;2023-07-22T07:09:54;2.65;;;1.88;;
50056;SDS011;36875;49.468;11.200;2023-07-22T07:12:19;3.80;;;1.98;;
50056;SDS011;36875;49.468;11.200;2023-07-22T07:14:45;2.70;;;1.80;;
50056;SDS011;36875;49.468;11.200;2023-07-22T07:17:10;3.63;;;1.98;;
50056;SDS011;36875;49.468;11.200;2023-07-22T07:19:36;3.10;;;1.98;;
50056;SDS011;36875;49.468;11.200;2023-07-22T07:22:03;2.25;;;1.67;;
50056;SDS011;36875;49.468;11.200;2023-07-22T07:24:28;3.88;;;1.95;;
50056;SDS011;36875;49.468;11.200;2023-07-22T07:26:54;3.38;;;1.80;;
50056;SDS011;36875;49.468;11.200;2023-07-22T07:29:20;2.47;;;1.70;;
50056;SDS011;36875;49.468;11.200;2023-07-22T07:31:45;2.70;;;1.52;;
50056;SDS011;36875;49.468;11.200;2023-07-22T07:34:11;3.33;;;1.80;;
50056;SDS011;36875;49.468;11.200;2023-07-22T07:36:36;2.97;;;1.90;;
50056;SDS011;36875;49.468;11.200;2023-07-22T07:39:03;4.30;;;1.85;;
50056;SDS011;36875;49.468;11.200;2023-07-22T07:41:30;2.95;;;1.85;;
50056;SDS011;36875;49.468;11.200;2023-07-22T07:43:55;4.05;;;1.63;;
50056;SDS011;36875;49.468;11.200;2023-07-22T07:46:22;3.47;;;2.10;;
50056;SDS011;36875;49.468;11.200;2023-07-22T07:48:48;3.45;;;1.90;;
50056;SDS011;36875;49.468;11.200;2023-07-22T07:51:15;3.92;;;2.17;;
50056;SDS011;36875;49.468;11.200;2023-07-22T07:53:41;4.45;;;2.17;;
50056;SDS011;36875;49.468;11.200;2023-07-22T07:56:10;2.78;;;2.03;;
50056;SDS011;36875;49.468;11.200;2023-07-22T07:58:36;3.78;;;2.20;;
50056;SDS011;36875;49.468;11.200;2023-07-22T08:01:01;4.03;;;2.40;;
50056;SDS011;36875;49.468;11.200;2023-07-22T08:03:27;3.00;;;2.00;;
50056;SDS011;36875;49.468;11.200;2023-07-22T08:05:53;4.07;;;2.40;;
50056;SDS011;36875;49.468;11.200;2023-07-22T08:08:18;4.55;;;2.50;;
50056;SDS011;36875;49.468;11.200;2023-07-22T08:10:43;3.28;;;2.40;;
50056;SDS011;36875;49.468;11.200;2023-07-22T08:13:10;4.10;;;2.40;;
50056;SDS011;36875;49.468;11.200;2023-07-22T08:15:36;4.35;;;2.25;;
50056;SDS011;36875;49.468;11.200;2023-07-22T08:18:02;4.38;;;2.75;;
50056;SDS011;36875;49.468;11.200;2023-07-22T08:20:29;4.10;;;2.78;;
50056;SDS011;36875;49.468;11.200;2023-07-22T08:22:54;3.85;;;2.58;;
50056;SDS011;36875;49.468;11.200;2023-07-22T08:25:19;4.72;;;2.55;;
50056;SDS011;36875;49.468;11.200;2023-07-22T08:27:45;6.68;;;3.08;;
50056;SDS011;36875;49.468;11.200;2023-07-22T08:30:12;5.78;;;3.35;;
50056;SDS011;36875;49.468;11.200;2023-07-22T08:32:37;4.50;;;3.10;;
50056;SDS011;36875;49.468;11.200;2023-07-22T08:35:03;4.50;;;2.85;;
50056;SDS011;36875;49.468;11.200;2023-07-22T08:37:30;6.88;;;3.10;;
50056;SDS011;36875;49.468;11.200;2023-07-22T08:39:56;5.10;;;3.08;;
50056;SDS011;36875;49.468;11.200;2023-07-22T08:42:21;6.78;;;2.60;;
50056;SDS011;36875;49.468;11.200;2023-07-22T08:44:49;5.38;;;3.00;;
50056;SDS011;36875;49.468;11.200;2023-07-22T08:47:21;5.60;;;3.08;;
50056;SDS011;36875;49.468;11.200;2023-07-22T08:49:50;9.88;;;3.20;;
50056;SDS011;36875;49.468;11.200;2023-07-22T08:52:17;6.78;;;3.28;;
50056;SDS011;36875;49.468;11.200;2023-07-22T08:54:44;5.00;;;3.00;;
50056;SDS011;36875;49.468;11.200;2023-07-22T08:57:10;7.85;;;3.10;;
50056;SDS011;36875;49.468;11.200;2023-07-22T08:59:36;5.15;;;2.83;;
50056;SDS011;36875;49.468;11.200;2023-07-22T09:02:03;5.07;;;2.90;;
50056;SDS011;36875;49.468;11.200;2023-07-22T09:04:31;5.32;;;2.60;;
50056;SDS011;36875;49.468;11.200;2023-07-22T09:06:57;4.85;;;2.90;;
50056;SDS011;36875;49.468;11.200;2023-07-22T09:09:23;5.45;;;2.65;;
50056;SDS011;36875;49.468;11.200;2023-07-22T09:11:51;4.40;;;3.10;;
50056;SDS011;36875;49.468;11.200;2023-07-22T09:14:17;5.05;;;2.95;;
50056;SDS011;36875;49.468;11.200;2023-07-22T09:16:44;7.93;;;2.83;;
50056;SDS011;36875;49.468;11.200;2023-07-22T09:19:09;7.70;;;3.10;;
50056;SDS011;36875;49.468;11.200;2023-07-22T09:21:36;5.38;;;2.83;;
50056;SDS011;36875;49.468;11.200;2023-07-22T09:24:02;5.30;;;2.80;;
50056;SDS011;36875;49.468;11.200;2023-07-22T09:26:45;7.95;;;2.65;;
50056;SDS011;36875;49.468;11.200;2023-07-22T09:29:11;5.75;;;3.10;;
50056;SDS011;36875;49.468;11.200;2023-07-22T09:31:45;4.72;;;3.10;;
50056;SDS011;36875;49.468;11.200;2023-07-22T09:34:14;5.50;;;2.80;;
50056;SDS011;36875;49.468;11.200;2023-07-22T09:36:50;8.25;;;3.05;;
50056;SDS011;36875;49.468;11.200;2023-07-22T09:39:17;6.57;;;2.70;;
50056;SDS011;36875;49.468;11.200;2023-07-22T09:41:43;6.22;;;2.65;;
50056;SDS011;36875;49.468;11.200;2023-07-22T09:44:09;6.22;;;2.95;;
50056;SDS011;36875;49.468;11.200;2023-07-22T09:46:35;4.85;;;2.80;;
50056;SDS011;36875;49.468;11.200;2023-07-22T09:49:02;5.75;;;3.03;;
50056;SDS011;36875;49.468;11.200;2023-07-22T09:51:32;4.78;;;2.90;;
50056;SDS011;36875;49.468;11.200;2023-07-22T09:54:00;7.32;;;2.72;;
50056;SDS011;36875;49.468;11.200;2023-07-22T09:56:27;5.45;;;2.90;;
50056;SDS011;36875;49.468;11.200;2023-07-22T09:58:52;4.55;;;2.50;;
50056;SDS011;36875;49.468;11.200;2023-07-22T10:01:19;5.00;;;2.60;;
50056;SDS011;36875;49.468;11.200;2023-07-22T10:03:46;5.95;;;3.10;;
50056;SDS011;36875;49.468;11.200;2023-07-22T10:06:19;3.50;;;2.63;;
50056;SDS011;36875;49.468;11.200;2023-07-22T10:08:47;5.60;;;3.15;;
50056;SDS011;36875;49.468;11.200;2023-07-22T10:11:15;4.30;;;2.80;;
50056;SDS011;36875;49.468;11.200;2023-07-22T10:13:41;4.35;;;2.70;;
50056;SDS011;36875;49.468;11.200;2023-07-22T10:16:06;6.07;;;2.80;;
50056;SDS011;36875;49.468;11.200;2023-07-22T10:18:33;4.78;;;2.70;;
50056;SDS011;36875;49.468;11.200;2023-07-22T10:20:59;6.40;;;2.88;;
50056;SDS011;36875;49.468;11.200;2023-07-22T10:23:26;6.07;;;2.53;;
50056;SDS011;36875;49.468;11.200;2023-07-22T10:25:53;4.55;;;2.80;;
50056;SDS011;36875;49.468;11.200;2023-07-22T10:28:21;5.10;;;2.70;;
50056;SDS011;36875;49.468;11.200;2023-07-22T10:30:48;7.28;;;2.70;;
50056;SDS011;36875;49.468;11.200;2023-07-22T10:33:13;4.50;;;2.67;;
50056;SDS011;36875;49.468;11.200;2023-07-22T10:35:41;5.22;;;2.80;;
50056;SDS011;36875;49.468;11.200;2023-07-22T10:38:09;5.57;;;2.70;;
50056;SDS011;36875;49.468;11.200;2023-07-22T10:40:44;7.47;;;3.13;;
50056;SDS011;36875;49.468;11.200;2023-07-22T10:43:10;4.70;;;2.80;;
50056;SDS011;36875;49.468;11.200;2023-07-22T10:45:41;3.80;;;2.42;;
50056;SDS011;36875;49.468;11.200;2023-07-22T10:48:14;5.97;;;3.00;;
50056;SDS011;36875;49.468;11.200;2023-07-22T10:50:41;6.95;;;3.00;;
50056;SDS011;36875;49.468;11.200;2023-07-22T10:53:09;4.68;;;2.80;;
50056;SDS011;36875;49.468;11.200;2023-07-22T10:55:49;6.05;;;3.97;;
50056;SDS011;36875;49.468;11.200;2023-07-22T10:58:28;8.70;;;3.90;;
50056;SDS011;36875;49.468;11.200;2023-07-22T11:00:56;10.65;;;5.55;;
50056;SDS011;36875;49.468;11.200;2023-07-22T11:04:02;13.07;;;6.40;;
50056;SDS011;36875;49.468;11.200;2023-07-22T11:06:30;10.15;;;6.57;;
50056;SDS011;36875;49.468;11.200;2023-07-22T11:08:56;9.77;;;5.80;;
50056;SDS011;36875;49.468;11.200;2023-07-22T11:11:22;6.85;;;4.72;;
50056;SDS011;36875;49.468;11.200;2023-07-22T11:14:11;9.75;;;6.15;;
50056;SDS011;36875;49.468;11.200;2023-07-22T11:16:39;20.13;;;12.25;;
50056;SDS011;36875;49.468;11.200;2023-07-22T11:19:06;46.72;;;26.75;;
50056;SDS011;36875;49.468;11.200;2023-07-22T11:21:32;29.00;;;16.58;;
50056;SDS011;36875;49.468;11.200;2023-07-22T11:23:57;19.02;;;10.60;;
50056;SDS011;36875;49.468;11.200;2023-07-22T11:26:23;15.20;;;8.13;;
50056;SDS011;36875;49.468;11.200;2023-07-22T11:28:48;12.90;;;7.57;;
50056;SDS011;36875;49.468;11.200;2023-07-22T11:31:14;16.10;;;8.90;;
50056;SDS011;36875;49.468;11.200;2023-07-22T11:33:41;21.02;;;10.20;;
50056;SDS011;36875;49.468;11.200;2023-07-22T11:36:09;16.48;;;7.68;;
50056;SDS011;36875;49.468;11.200;2023-07-22T11:38:34;12.18;;;7.55;;
50056;SDS011;36875;49.468;11.200;2023-07-22T11:41:01;11.48;;;6.53;;
50056;SDS011;36875;49.468;11.200;2023-07-22T11:43:27;11.32;;;6.20;;
50056;SDS011;36875;49.468;11.200;2023-07-22T11:45:53;11.45;;;6.35;;
50056;SDS011;36875;49.468;11.200;2023-07-22T11:48:18;9.88;;;6.03;;
50056;SDS011;36875;49.468;11.200;2023-07-22T11:50:46;7.97;;;5.22;;
50056;SDS011;36875;49.468;11.200;2023-07-22T11:53:11;10.85;;;5.22;;
50056;SDS011;36875;49.468;11.200;2023-07-22T11:55:37;7.88;;;4.45;;
50056;SDS011;36875;49.468;11.200;2023-07-22T11:58:03;6.95;;;4.65;;
50056;SDS011;36875;49.468;11.200;2023-07-22T12:00:28;6.70;;;3.80;;
50056;SDS011;36875;49.468;11.200;2023-07-22T12:02:54;6.13;;;3.97;;
50056;SDS011;36875;49.468;11.200;2023-07-22T12:05:22;6.25;;;3.75;;
50056;SDS011;36875;49.468;11.200;2023-07-22T12:07:49;6.05;;;3.53;;
50056;SDS011;36875;49.468;11.200;2023-07-22T12:10:15;4.90;;;3.38;;
50056;SDS011;36875;49.468;11.200;2023-07-22T12:12:41;5.13;;;3.30;;
50056;SDS011;36875;49.468;11.200;2023-07-22T12:15:09;6.20;;;2.97;;
50056;SDS011;36875;49.468;11.200;2023-07-22T12:17:46;4.93;;;2.88;;
50056;SDS011;36875;49.468;11.200;2023-07-22T12:20:13;4.57;;;2.70;;
50056;SDS011;36875;49.468;11.200;2023-07-22T12:22:39;6.43;;;2.83;;
50056;SDS011;36875;49.468;11.200;2023-07-22T12:25:07;4.80;;;2.83;;
50056;SDS011;36875;49.468;11.200;2023-07-22T12:27:32;4.43;;;2.30;;
50056;SDS011;36875;49.468;11.200;2023-07-22T12:29:58;4.90;;;2.47;;
50056;SDS011;36875;49.468;11.200;2023-07-22T12:32:23;3.90;;;2.30;;
50056;SDS011;36875;49.468;11.200;2023-07-22T12:34:49;4.28;;;2.50;;
50056;SDS011;36875;49.468;11.200;2023-07-22T12:37:14;4.20;;;2.60;;
50056;SDS011;36875;49.468;11.200;2023-07-22T12:39:40;4.30;;;2.70;;
50056;SDS011;36875;49.468;11.200;2023-07-22T12:42:06;3.55;;;2.35;;
50056;SDS011;36875;49.468;11.200;2023-07-22T12:44:32;5.18;;;2.35;;
50056;SDS011;36875;49.468;11.200;2023-07-22T12:46:58;4.57;;;2.30;;
50056;SDS011;36875;49.468;11.200;2023-07-22T12:49:23;3.85;;;2.20;;
50056;SDS011;36875;49.468;11.200;2023-07-22T12:51:49;3.83;;;2.17;;
50056;SDS011;36875;49.468;11.200;2023-07-22T12:54:14;5.13;;;2.30;;
50056;SDS011;36875;49.468;11.200;2023-07-22T12:56:40;3.50;;;2.13;;
50056;SDS011;36875;49.468;11.200;2023-07-22T12:59:09;3.05;;;1.88;;
50056;SDS011;36875;49.468;11.200;2023-07-22T13:01:35;3.05;;;2.10;;
50056;SDS011;36875;49.468;11.200;2023-07-22T13:04:03;3.08;;;2.00;;
50056;SDS011;36875;49.468;11.200;2023-07-22T13:06:29;3.40;;;2.10;;
50056;SDS011;36875;49.468;11.200;2023-07-22T13:08:54;3.33;;;2.15;;
50056;SDS011;36875;49.468;11.200;2023-07-22T13:11:20;2.55;;;1.70;;
50056;SDS011;36875;49.468;11.200;2023-07-22T13:13:45;3.40;;;2.17;;
50056;SDS011;36875;49.468;11.200;2023-07-22T13:16:12;3.38;;;2.15;;
50056;SDS011;36875;49.468;11.200;2023-07-22T13:18:38;3.92;;;2.05;;
50056;SDS011;36875;49.468;11.200;2023-07-22T13:21:03;4.53;;;1.98;;
50056;SDS011;36875;49.468;11.200;2023-07-22T13:23:29;3.72;;;2.10;;
50056;SDS011;36875;49.468;11.200;2023-07-22T13:25:54;4.10;;;2.00;;
50056;SDS011;36875;49.468;11.200;2023-07-22T13:28:20;2.67;;;1.88;;
50056;SDS011;36875;49.468;11.200;2023-07-22T13:30:45;3.05;;;2.15;;
50056;SDS011;36875;49.468;11.200;2023-07-22T13:33:12;5.63;;;2.10;;
50056;SDS011;36875;49.468;11.200;2023-07-22T13:35:38;4.07;;;2.05;;
50056;SDS011;36875;49.468;11.200;2023-07-22T13:38:03;3.33;;;2.13;;
50056;SDS011;36875;49.468;11.200;2023-07-22T13:40:29;5.63;;;2.00;;
50056;SDS011;36875;49.468;11.200;2023-07-22T13:42:54;2.80;;;1.92;;
50056;SDS011;36875;49.468;11.200;2023-07-22T13:45:20;4.05;;;2.10;;
50056;SDS011;36875;49.468;11.200;2023-07-22T13:47:45;3.13;;;2.10;;
50056;SDS011;36875;49.468;11.200;2023-07-22T13:50:12;3.75;;;2.10;;
50056;SDS011;36875;49.468;11.200;2023-07-22T13:52:38;3.15;;;1.98;;
50056;SDS011;36875;49.468;11.200;2023-07-22T13:55:05;2.75;;;1.80;;
50056;SDS011;36875;49.468;11.200;2023-07-22T13:57:31;3.05;;;2.08;;
50056;SDS011;36875;49.468;11.200;2023-07-22T13:59:57;2.95;;;1.90;;
50056;SDS011;36875;49.468;11.200;2023-07-22T14:02:22;4.63;;;2.00;;
50056;SDS011;36875;49.468;11.200;2023-07-22T14:04:48;3.28;;;2.10;;
50056;SDS011;36875;49.468;11.200;2023-07-22T14:07:14;3.63;;;2.10;;
50056;SDS011;36875;49.468;11.200;2023-07-22T14:09:41;3.13;;;1.85;;
50056;SDS011;36875;49.468;11.200;2023-07-22T14:12:06;2.90;;;2.00;;
50056;SDS011;36875;49.468;11.200;2023-07-22T14:14:32;3.65;;;1.90;;
50056;SDS011;36875;49.468;11.200;2023-07-22T14:16:58;4.00;;;2.20;;
50056;SDS011;36875;49.468;11.200;2023-07-22T14:19:23;3.47;;;2.03;;
50056;SDS011;36875;49.468;11.200;2023-07-22T14:21:49;2.97;;;1.95;;
50056;SDS011;36875;49.468;11.200;2023-07-22T14:24:16;2.78;;;1.90;;
50056;SDS011;36875;49.468;11.200;2023-07-22T14:26:41;3.67;;;2.10;;
50056;SDS011;36875;49.468;11.200;2023-07-22T14:29:07;3.30;;;2.00;;